createdAt,value
2018-01-21T00:02:19.848Z,99976.86
2018-01-21T00:04:47.493Z,99976.94
2018-01-21T00:07:15.037Z,99977.74
2018-01-21T00:09:42.594Z,99982.19
2018-01-21T00:12:10.143Z,99976.52
2018-01-21T00:14:37.697Z,99980.45
2018-01-21T00:17:05.257Z,99980.83
2018-01-21T00:19:32.843Z,99980.09
2018-01-21T00:22:01.221Z,99982.82
2018-01-21T00:24:28.948Z,99977.78
2018-01-21T00:26:57.330Z,99983.22
2018-01-21T00:29:24.877Z,99979.99
2018-01-21T00:31:53.313Z,99989.02
2018-01-21T00:34:20.975Z,99981.13
2018-01-21T00:36:48.538Z,99985.06
2018-01-21T00:39:16.312Z,99988.36
2018-01-21T00:41:45.467Z,99995.30
2018-01-21T00:44:13.022Z,100001.02
2018-01-21T00:46:40.575Z,99998.80
2018-01-21T00:49:08.138Z,100000.94
2018-01-21T00:51:35.691Z,99999.23
2018-01-21T00:54:03.308Z,100001.30
2018-01-21T00:56:30.853Z,100001.03
2018-01-21T00:58:58.398Z,100004.13
2018-01-21T01:01:25.956Z,100004.95
2018-01-21T01:03:53.510Z,100006.34
2018-01-21T01:06:21.067Z,100008.89
2018-01-21T01:08:48.625Z,100023.45
2018-01-21T01:11:16.183Z,100021.55
2018-01-21T01:13:43.775Z,100020.73
2018-01-21T01:16:11.553Z,100025.27
2018-01-21T01:18:39.118Z,100029.73
2018-01-21T01:21:06.672Z,100032.35
2018-01-21T01:23:34.235Z,100035.88
2018-01-21T01:26:01.791Z,100039.14
2018-01-21T01:28:30.271Z,100038.61
2018-01-21T01:30:57.821Z,100042.06
2018-01-21T01:33:25.377Z,100047.48
2018-01-21T01:35:53.770Z,100051.43
2018-01-21T01:38:22.335Z,100056.31
2018-01-21T01:40:50.722Z,100063.48
2018-01-21T01:43:19.065Z,100061.27
2018-01-21T01:45:46.686Z,100067.47
2018-01-21T01:48:14.293Z,100066.06
2018-01-21T01:50:42.541Z,100064.14
2018-01-21T01:53:10.215Z,100069.81
2018-01-21T01:55:38.477Z,100073.89
2018-01-21T01:58:06.974Z,100074.73
2018-01-21T02:00:34.518Z,100079.40
2018-01-21T02:03:02.078Z,100083.60
2018-01-21T02:05:29.629Z,100083.86
2018-01-21T02:07:57.183Z,100089.14
2018-01-21T02:10:24.778Z,100099.95
2018-01-21T02:12:52.340Z,100102.60
2018-01-21T02:15:20.004Z,100103.77
2018-01-21T02:17:47.561Z,100101.13
2018-01-21T02:20:18.966Z,100099.84
2018-01-21T02:22:46.522Z,100103.61
2018-01-21T02:25:14.077Z,100109.41
2018-01-21T02:27:41.626Z,100109.96
2018-01-21T02:30:09.390Z,100110.12
2018-01-21T02:32:37.094Z,100116.77
2018-01-21T02:35:04.728Z,100120.06
2018-01-21T02:37:32.273Z,100125.32
2018-01-21T02:39:59.837Z,100122.69
2018-01-21T02:42:27.394Z,100124.87
2018-01-21T02:44:54.953Z,100130.20
2018-01-21T02:47:22.655Z,100126.89
2018-01-21T02:49:50.375Z,100134.02
2018-01-21T02:52:17.942Z,100137.34
2018-01-21T02:54:45.540Z,100133.11
2018-01-21T02:57:13.102Z,100141.92
2018-01-21T02:59:40.661Z,100140.61
2018-01-21T03:02:08.208Z,100149.59
2018-01-21T03:04:35.768Z,100145.11
2018-01-21T03:07:03.362Z,100151.36
2018-01-21T03:09:31.071Z,100151.70
2018-01-21T03:11:58.683Z,100153.81
2018-01-21T03:14:26.238Z,100155.56
2018-01-21T03:16:53.797Z,100157.30
2018-01-21T03:19:21.350Z,100166.02
2018-01-21T03:21:48.909Z,100166.84
2018-01-21T03:24:16.469Z,100169.27
2018-01-21T03:26:44.031Z,100169.62
2018-01-21T03:29:11.586Z,100173.86
2018-01-21T03:31:39.146Z,100176.37
2018-01-21T03:34:06.702Z,100178.70
2018-01-21T03:36:34.256Z,100189.12
2018-01-21T03:39:01.847Z,100195.82
2018-01-21T03:41:29.414Z,100194.06
2018-01-21T03:43:57.455Z,100194.52
2018-01-21T03:46:25.009Z,100199.81
2018-01-21T03:48:52.559Z,100205.53
2018-01-21T03:51:20.114Z,100209.06
2018-01-21T03:53:47.678Z,100218.60
2018-01-21T03:56:15.246Z,100219.91
2018-01-21T03:58:42.804Z,100217.76
2018-01-21T04:01:10.358Z,100220.73
2018-01-21T04:03:37.966Z,100222.90
2018-01-21T04:06:05.517Z,100225.54
2018-01-21T04:08:33.065Z,100230.86
2018-01-21T04:11:00.651Z,100233.33
2018-01-21T04:13:28.209Z,100230.02
2018-01-21T04:15:55.803Z,100235.81
2018-01-21T04:18:23.429Z,100239.47
2018-01-21T04:20:51.096Z,100247.45
2018-01-21T04:23:18.889Z,100240.59
2018-01-21T04:25:46.534Z,100243.61
2018-01-21T04:28:14.091Z,100248.14
2018-01-21T04:30:41.746Z,100250.44
2018-01-21T04:33:09.334Z,100253.25
2018-01-21T04:35:36.969Z,100246.93
2018-01-21T04:38:04.553Z,100257.22
2018-01-21T04:40:32.147Z,100265.13
2018-01-21T04:42:59.758Z,100265.03
2018-01-21T04:45:27.314Z,100272.32
2018-01-21T04:47:54.907Z,100276.28
2018-01-21T04:50:22.537Z,100279.72
2018-01-21T04:52:50.130Z,100278.08
2018-01-21T04:55:17.682Z,100293.38
2018-01-21T04:57:45.237Z,100288.37
2018-01-21T05:00:12.952Z,100297.29
2018-01-21T05:02:40.513Z,100299.09
2018-01-21T05:05:08.114Z,100297.91
2018-01-21T05:07:35.654Z,100306.31
2018-01-21T05:10:03.202Z,100312.91
2018-01-21T05:12:30.790Z,100313.58
2018-01-21T05:14:58.350Z,100315.30
2018-01-21T05:17:26.275Z,100314.00
2018-01-21T05:19:53.827Z,100320.73
2018-01-21T05:22:21.385Z,100321.06
2018-01-21T05:24:48.934Z,100324.56
2018-01-21T05:27:16.558Z,100330.05
2018-01-21T05:29:44.109Z,100335.64
2018-01-21T05:32:11.655Z,100338.56
2018-01-21T05:34:39.345Z,100346.28
2018-01-21T05:37:07.055Z,100346.08
2018-01-21T05:39:34.608Z,100355.59
2018-01-21T05:42:02.203Z,100356.73
2018-01-21T05:44:29.752Z,100356.20
2018-01-21T05:46:57.347Z,100373.03
2018-01-21T05:49:24.893Z,100366.64
2018-01-21T05:51:52.449Z,100376.22
2018-01-21T05:54:19.989Z,100382.47
2018-01-21T05:56:47.585Z,100387.09
2018-01-21T05:59:15.322Z,100389.42
2018-01-21T06:01:42.926Z,100395.14
2018-01-21T06:04:10.487Z,100399.81
2018-01-21T06:06:38.058Z,100400.24
2018-01-21T06:09:05.614Z,100400.34
2018-01-21T06:11:33.170Z,100405.21
2018-01-21T06:14:00.759Z,100410.19
2018-01-21T06:16:28.311Z,100416.41
2018-01-21T06:18:55.927Z,100425.09
2018-01-21T06:21:23.489Z,100426.45
2018-01-21T06:23:51.055Z,100424.47
2018-01-21T06:26:18.701Z,100429.99
2018-01-21T06:28:46.934Z,100435.52
2018-01-21T06:31:14.574Z,100439.83
2018-01-21T06:33:42.413Z,100448.57
2018-01-21T06:36:10.266Z,100449.81
2018-01-21T06:38:37.825Z,100455.63
2018-01-21T06:41:05.422Z,100461.91
2018-01-21T06:43:32.975Z,100465.68
2018-01-21T06:46:00.557Z,100478.75
2018-01-21T06:48:28.108Z,100477.52
2018-01-21T06:50:55.854Z,100485.48
2018-01-21T06:53:23.404Z,100500.44
2018-01-21T06:55:50.957Z,100499.83
2018-01-21T06:58:18.505Z,100506.80
2018-01-21T07:00:46.088Z,100505.24
2018-01-21T07:03:13.635Z,100514.17
2018-01-21T07:05:41.182Z,100524.97
2018-01-21T07:08:08.734Z,100534.50
2018-01-21T07:10:36.341Z,100533.38
2018-01-21T07:13:04.052Z,100537.16
2018-01-21T07:15:31.642Z,100539.32
2018-01-21T07:17:59.246Z,100540.09
2018-01-21T07:20:26.905Z,100546.41
2018-01-21T07:22:54.502Z,100547.13
2018-01-21T07:25:22.134Z,100551.48
2018-01-21T07:27:49.825Z,100555.61
2018-01-21T07:30:17.430Z,100560.06
2018-01-21T07:32:44.983Z,100564.70
2018-01-21T07:35:12.625Z,100574.08
2018-01-21T07:37:40.173Z,100573.82
2018-01-21T07:40:07.717Z,100578.97
2018-01-21T07:42:35.262Z,100581.81
2018-01-21T07:45:02.887Z,100591.44
2018-01-21T07:47:30.689Z,100595.35
2018-01-21T07:49:58.429Z,100603.52
2018-01-21T07:52:25.989Z,100611.97
2018-01-21T07:54:53.642Z,100616.05
2018-01-21T07:57:21.288Z,100616.59
2018-01-21T07:59:48.830Z,100621.64
2018-01-21T08:02:16.458Z,100638.58
2018-01-21T08:04:44.026Z,100640.70
2018-01-21T08:07:11.671Z,100647.59
2018-01-21T08:09:39.250Z,100654.55
2018-01-21T08:12:06.830Z,100653.66
2018-01-21T08:14:40.169Z,100659.09
2018-01-21T08:17:07.770Z,100664.22
2018-01-21T08:19:35.430Z,100666.98
2018-01-21T08:22:02.969Z,100674.53
2018-01-21T08:24:30.554Z,100683.73
2018-01-21T08:26:58.253Z,100693.20
2018-01-21T08:29:25.893Z,100692.88
2018-01-21T08:31:53.475Z,100708.74
2018-01-21T08:34:26.614Z,100713.83
2018-01-21T08:36:59.771Z,100719.59
2018-01-21T08:39:32.922Z,100723.88
2018-01-21T08:42:03.958Z,100725.60
2018-01-21T08:44:31.500Z,100726.01
2018-01-21T08:46:59.051Z,100728.87
2018-01-21T08:49:26.723Z,100734.67
2018-01-21T08:51:54.874Z,100746.38
2018-01-21T08:54:22.590Z,100746.90
2018-01-21T08:56:50.404Z,100755.06
2018-01-21T08:59:17.954Z,100747.95
2018-01-21T09:01:45.567Z,100755.73
2018-01-21T09:04:13.149Z,100754.98
2018-01-21T09:06:40.795Z,100763.34
2018-01-21T09:09:08.454Z,100775.72
2018-01-21T09:11:36.044Z,100780.77
2018-01-21T09:14:03.591Z,100788.05
2018-01-21T09:16:31.417Z,100795.48
2018-01-21T09:18:59.018Z,100793.05
2018-01-21T09:21:26.566Z,100793.31
2018-01-21T09:23:54.230Z,100800.19
2018-01-21T09:26:21.790Z,100808.45
2018-01-21T09:28:49.374Z,100818.59
2018-01-21T09:31:17.010Z,100815.77
2018-01-21T09:33:44.597Z,100815.59
2018-01-21T09:36:12.950Z,100816.39
2018-01-21T09:38:40.587Z,100823.58
2018-01-21T09:41:08.145Z,100830.05
2018-01-21T09:43:35.729Z,100836.86
2018-01-21T09:46:03.287Z,100838.64
2018-01-21T09:48:30.872Z,100848.95
2018-01-21T09:50:59.166Z,100845.67
2018-01-21T09:53:26.935Z,100851.10
2018-01-21T09:55:54.507Z,100851.11
2018-01-21T09:58:22.107Z,100854.10
2018-01-21T10:00:49.658Z,100855.39
2018-01-21T10:03:17.208Z,100857.14
2018-01-21T10:05:44.750Z,100867.97
2018-01-21T10:08:12.346Z,100866.43
2018-01-21T10:10:39.908Z,100864.80
2018-01-21T10:13:07.635Z,100869.86
2018-01-21T10:15:35.198Z,100880.27
2018-01-21T10:18:02.754Z,100880.79
2018-01-21T10:20:30.344Z,100885.27
2018-01-21T10:22:57.904Z,100888.19
2018-01-21T10:25:25.642Z,100885.61
2018-01-21T10:27:53.257Z,100893.27
2018-01-21T10:30:20.855Z,100897.98
2018-01-21T10:32:48.635Z,100903.32
2018-01-21T10:35:16.350Z,100907.14
2018-01-21T10:37:43.894Z,100902.22
2018-01-21T10:40:11.582Z,100911.25
2018-01-21T10:42:39.138Z,100901.50
2018-01-21T10:45:06.691Z,100914.53
2018-01-21T10:47:34.238Z,100916.82
2018-01-21T10:50:01.825Z,100921.39
2018-01-21T10:52:29.372Z,100931.91
2018-01-21T10:54:56.973Z,100929.42
2018-01-21T10:57:24.534Z,100933.28
2018-01-21T10:59:52.142Z,100936.05
2018-01-21T11:02:19.722Z,100941.28
2018-01-21T11:04:47.323Z,100943.25
2018-01-21T11:07:14.918Z,100950.77
2018-01-21T11:09:42.466Z,100950.66
2018-01-21T11:12:10.198Z,100949.13
2018-01-21T11:14:37.779Z,100954.19
2018-01-21T11:17:05.322Z,100956.52
2018-01-21T11:19:32.870Z,100965.47
2018-01-21T11:22:00.414Z,100969.69
2018-01-21T11:24:28.898Z,100964.97
2018-01-21T11:26:56.550Z,100971.58
2018-01-21T11:29:24.322Z,100973.97
2018-01-21T11:31:51.886Z,100979.31
2018-01-21T11:34:19.446Z,100981.64
2018-01-21T11:36:46.990Z,100983.02
2018-01-21T11:39:14.541Z,100988.06
2018-01-21T11:41:42.090Z,100988.93
2018-01-21T11:44:09.647Z,100996.63
2018-01-21T11:46:37.194Z,100995.39
2018-01-21T11:49:05.058Z,101002.29
2018-01-21T11:51:32.675Z,101007.45
2018-01-21T11:54:00.245Z,101015.06
2018-01-21T11:56:27.808Z,101012.22
2018-01-21T11:58:55.350Z,101019.12
2018-01-21T12:01:22.894Z,101022.88
2018-01-21T12:03:50.443Z,101026.72
2018-01-21T12:06:18.042Z,101021.38
2018-01-21T12:08:45.630Z,101028.20
2018-01-21T12:11:13.267Z,101032.12
2018-01-21T12:13:40.815Z,101029.05
2018-01-21T12:16:08.486Z,101029.41
2018-01-21T12:18:36.030Z,101031.78
2018-01-21T12:21:03.581Z,101036.14
2018-01-21T12:23:31.182Z,101042.25
2018-01-21T12:25:58.835Z,101041.98
2018-01-21T12:28:26.494Z,101043.53
2018-01-21T12:30:54.083Z,101048.09
2018-01-21T12:33:21.714Z,101045.73
2018-01-21T12:35:51.001Z,101057.03
2018-01-21T12:38:18.644Z,101055.50
2018-01-21T12:40:46.430Z,101062.98
2018-01-21T12:43:13.994Z,101068.48
2018-01-21T12:45:41.578Z,101069.84
2018-01-21T12:48:09.207Z,101082.27
2018-01-21T12:50:36.762Z,101084.95
2018-01-21T12:53:04.360Z,101084.32
2018-01-21T12:55:31.912Z,101086.78
2018-01-21T12:57:59.469Z,101080.73
2018-01-21T13:00:27.018Z,101082.97
2018-01-21T13:02:54.566Z,101083.43
2018-01-21T13:05:22.136Z,101087.30
2018-01-21T13:07:49.725Z,101087.11
2018-01-21T13:10:17.311Z,101086.35
2018-01-21T13:12:44.861Z,101091.89
2018-01-21T13:15:12.522Z,101094.05
2018-01-21T13:17:40.311Z,101093.05
2018-01-21T13:20:08.091Z,101102.30
2018-01-21T13:22:35.702Z,101103.01
2018-01-21T13:25:03.250Z,101113.03
2018-01-21T13:27:30.808Z,101112.06
2018-01-21T13:29:58.379Z,101115.22
2018-01-21T13:32:26.351Z,101124.43
2018-01-21T13:34:53.898Z,101124.94
2018-01-21T13:37:21.679Z,101130.42
2018-01-21T13:39:49.230Z,101129.65
2018-01-21T13:42:16.777Z,101136.94
2018-01-21T13:44:44.365Z,101145.84
2018-01-21T13:47:11.911Z,101155.50
2018-01-21T13:49:39.498Z,101157.47
2018-01-21T13:52:07.049Z,101162.78
2018-01-21T13:54:35.241Z,101165.30
2018-01-21T13:57:02.946Z,101175.55
2018-01-21T13:59:30.537Z,101173.91
2018-01-21T14:01:58.082Z,101177.06
2018-01-21T14:04:25.621Z,101187.91
2018-01-21T14:06:53.166Z,101188.48
2018-01-21T14:09:20.851Z,101192.80
2018-01-21T14:11:48.394Z,101198.33
2018-01-21T14:14:15.982Z,101202.55
2018-01-21T14:16:43.569Z,101202.09
2018-01-21T14:19:11.114Z,101207.48
2018-01-21T14:21:38.659Z,101213.88
2018-01-21T14:24:06.220Z,101221.02
2018-01-21T14:26:33.761Z,101226.55
2018-01-21T14:29:01.305Z,101227.28
2018-01-21T14:31:29.035Z,101228.53
2018-01-21T14:33:56.668Z,101229.02
2018-01-21T14:36:24.261Z,101230.19
2018-01-21T14:38:51.806Z,101238.17
2018-01-21T14:41:19.355Z,101235.75
2018-01-21T14:43:47.052Z,101241.20
2018-01-21T14:46:14.594Z,101245.17
2018-01-21T14:48:42.144Z,101252.55
2018-01-21T14:51:09.692Z,101248.30
2018-01-21T14:53:37.465Z,101252.53
2018-01-21T14:56:05.005Z,101257.39
2018-01-21T14:58:32.548Z,101260.19
2018-01-21T15:01:00.112Z,101260.27
2018-01-21T15:03:27.672Z,101264.45
2018-01-21T15:05:55.257Z,101264.30
2018-01-21T15:08:22.799Z,101269.65
2018-01-21T15:10:50.441Z,101269.31
2018-01-21T15:13:18.267Z,101273.09
2018-01-21T15:15:45.857Z,101269.39
2018-01-21T15:18:13.479Z,101277.45
2018-01-21T15:20:41.034Z,101279.55
2018-01-21T15:23:08.581Z,101282.05
2018-01-21T15:25:36.185Z,101286.23
2018-01-21T15:28:03.782Z,101285.02
2018-01-21T15:30:31.341Z,101285.52
2018-01-21T15:32:58.951Z,101292.73
2018-01-21T15:35:26.481Z,101294.70
2018-01-21T15:37:54.023Z,101303.12
2018-01-21T15:40:21.620Z,101299.77
2018-01-21T15:42:49.193Z,101305.39
2018-01-21T15:45:16.775Z,101308.02
2018-01-21T15:47:44.322Z,101308.97
2018-01-21T15:50:11.974Z,101308.63
2018-01-21T15:52:39.559Z,101313.64
2018-01-21T15:55:07.101Z,101314.93
2018-01-21T15:57:34.763Z,101316.02
2018-01-21T16:00:02.318Z,101317.73
2018-01-21T16:02:29.973Z,101319.13
2018-01-21T16:04:57.522Z,101317.73
2018-01-21T16:07:25.330Z,101329.63
2018-01-21T16:09:52.994Z,101336.80
2018-01-21T16:14:46.986Z,101349.24
2018-01-21T16:17:14.529Z,101349.30
2018-01-21T16:19:42.083Z,101353.91
2018-01-21T16:22:09.677Z,101364.81
2018-01-21T16:24:37.399Z,101364.44
2018-01-21T16:27:05.072Z,101366.16
2018-01-21T16:29:32.766Z,101371.38
2018-01-21T16:32:00.436Z,101377.30
2018-01-21T16:34:27.973Z,101380.97
2018-01-21T16:36:55.555Z,101380.00
2018-01-21T16:39:23.093Z,101386.50
2018-01-21T16:41:50.770Z,101395.48
2018-01-21T16:44:18.393Z,101392.17
2018-01-21T16:46:46.106Z,101393.89
2018-01-21T16:49:13.709Z,101398.23
2018-01-21T16:51:41.256Z,101395.61
2018-01-21T16:54:08.849Z,101396.14
2018-01-21T16:56:36.399Z,101399.16
2018-01-21T16:59:03.986Z,101398.23
2018-01-21T17:01:31.536Z,101407.20
2018-01-21T17:04:00.271Z,101406.95
2018-01-21T17:06:27.829Z,101408.08
2018-01-21T17:08:55.374Z,101409.89
2018-01-21T17:11:22.955Z,101409.78
2018-01-21T17:13:50.537Z,101410.20
2018-01-21T17:16:18.138Z,101408.92
2018-01-21T17:18:45.690Z,101415.79
2018-01-21T17:21:13.294Z,101412.42
2018-01-21T17:23:40.938Z,101415.55
2018-01-21T17:26:08.541Z,101414.39
2018-01-21T17:28:36.155Z,101413.22
2018-01-21T17:31:03.707Z,101418.38
2018-01-21T17:33:31.305Z,101411.81
2018-01-21T17:35:58.911Z,101414.62
2018-01-21T17:38:26.464Z,101414.20
2018-01-21T17:40:54.269Z,101411.75
2018-01-21T17:43:21.830Z,101412.54
2018-01-21T17:45:49.401Z,101413.97
2018-01-21T17:48:16.953Z,101413.64
2018-01-21T17:50:44.493Z,101417.03
2018-01-21T17:53:12.044Z,101421.33
2018-01-21T17:55:39.593Z,101426.48
2018-01-21T17:58:07.206Z,101430.61
2018-01-21T18:00:34.767Z,101426.30
2018-01-21T18:03:02.425Z,101424.34
2018-01-21T18:05:29.986Z,101420.77
2018-01-21T18:07:57.654Z,101421.64
2018-01-21T18:10:25.220Z,101418.08
2018-01-21T18:12:52.791Z,101413.03
2018-01-21T18:15:20.341Z,101416.66
2018-01-21T18:17:48.037Z,101414.56
2018-01-21T18:20:15.679Z,101411.45
2018-01-21T18:22:43.244Z,101416.34
2018-01-21T18:25:10.874Z,101413.76
2018-01-21T18:27:38.423Z,101415.55
2018-01-21T18:30:05.970Z,101417.20
2018-01-21T18:32:33.527Z,101409.47
2018-01-21T18:35:01.084Z,101416.65
2018-01-21T18:37:28.897Z,101412.05
2018-01-21T18:39:57.358Z,101412.84
2018-01-21T18:42:25.004Z,101419.85
2018-01-21T18:44:52.560Z,101412.79
2018-01-21T18:47:20.118Z,101416.95
2018-01-21T18:49:47.715Z,101416.61
2018-01-21T18:52:16.091Z,101416.48
2018-01-21T18:54:43.966Z,101421.99
2018-01-21T18:57:11.621Z,101429.27
2018-01-21T18:59:39.171Z,101430.12
2018-01-21T19:02:06.776Z,101435.09
2018-01-21T19:04:34.324Z,101446.83
2018-01-21T19:07:01.902Z,101440.98
2018-01-21T19:09:29.539Z,101439.42
2018-01-21T19:11:57.298Z,101443.06
2018-01-21T19:14:25.095Z,101443.56
2018-01-21T19:16:52.655Z,101447.41
2018-01-21T19:19:20.251Z,101451.51
2018-01-21T19:21:47.805Z,101447.55
2018-01-21T19:24:15.360Z,101447.44
2018-01-21T19:26:42.973Z,101453.27
2018-01-21T19:29:10.520Z,101451.47
2018-01-21T19:31:38.306Z,101451.84
2018-01-21T19:34:06.246Z,101457.69
2018-01-21T19:36:33.831Z,101454.81
2018-01-21T19:42:07.526Z,101453.19
2018-01-21T19:44:35.989Z,101458.92
2018-01-21T19:47:03.534Z,101465.23
2018-01-21T19:49:31.534Z,101462.00
2018-01-21T19:51:59.162Z,101472.38
2018-01-21T19:54:26.716Z,101467.14
2018-01-21T19:56:54.354Z,101466.21
2018-01-21T19:59:21.897Z,101461.99
2018-01-21T20:01:50.018Z,101459.94
2018-01-21T20:04:17.677Z,101459.53
2018-01-21T20:06:45.269Z,101457.11
2018-01-21T20:09:12.837Z,101446.92
2018-01-21T20:11:40.543Z,101441.91
2018-01-21T20:14:08.138Z,101444.17
2018-01-21T20:16:36.469Z,101444.53
2018-01-21T20:19:05.688Z,101447.69
2018-01-21T20:21:34.576Z,101446.56
2018-01-21T20:24:02.459Z,101454.56
2018-01-21T20:26:32.064Z,101450.80
2018-01-21T20:29:00.631Z,101454.05
2018-01-21T20:31:28.237Z,101455.17
2018-01-21T20:33:56.502Z,101452.46
2018-01-21T20:36:24.621Z,101450.74
2018-01-21T20:38:53.022Z,101445.15
2018-01-21T20:41:21.549Z,101443.61
2018-01-21T20:43:49.887Z,101437.78
2018-01-21T20:46:17.524Z,101446.56
2018-01-21T20:48:46.004Z,101443.16
2018-01-21T20:51:19.820Z,101451.34
2018-01-21T20:53:53.314Z,101450.05
2018-01-21T20:56:22.385Z,101440.27
2018-01-21T20:58:50.530Z,101446.47
2018-01-21T21:01:18.174Z,101447.59
2018-01-21T21:03:47.210Z,101449.26
2018-01-21T21:06:15.882Z,101456.18
2018-01-21T21:08:43.526Z,101454.63
2018-01-21T21:11:11.138Z,101453.61
2018-01-21T21:13:38.916Z,101449.66
2018-01-21T21:16:06.502Z,101450.48
2018-01-21T21:18:34.214Z,101450.00
2018-01-21T21:21:02.268Z,101454.65
2018-01-21T21:23:29.857Z,101453.93
2018-01-21T21:25:59.887Z,101448.02
2018-01-21T21:28:27.477Z,101442.81
2018-01-21T21:30:56.499Z,101437.84
2018-01-21T21:33:24.579Z,101437.58
2018-01-21T21:35:52.282Z,101428.83
2018-01-21T21:38:20.762Z,101418.56
2018-01-21T21:40:49.151Z,101427.09
2018-01-21T21:43:16.978Z,101422.86
2018-01-21T21:45:48.182Z,101420.83
2018-01-21T21:48:19.428Z,101422.31
2018-01-21T21:50:50.629Z,101419.61
2018-01-21T21:53:18.427Z,101423.63
2018-01-21T21:55:45.982Z,101419.97
2018-01-21T21:58:13.535Z,101415.41
2018-01-21T22:00:41.074Z,101417.02
2018-01-21T22:03:08.626Z,101414.09
2018-01-21T22:05:36.198Z,101413.84
2018-01-21T22:08:03.754Z,101418.42
2018-01-21T22:10:31.370Z,101418.44
2018-01-21T22:12:58.934Z,101420.64
2018-01-21T22:15:26.486Z,101419.28
2018-01-21T22:17:54.027Z,101418.92
2018-01-21T22:20:21.581Z,101419.72
2018-01-21T22:22:49.839Z,101420.08
2018-01-21T22:25:17.394Z,101414.98
2018-01-21T22:27:44.997Z,101411.02
2018-01-21T22:30:12.552Z,101409.11
2018-01-21T22:32:40.103Z,101406.71
2018-01-21T22:35:07.667Z,101413.97
2018-01-21T22:37:35.292Z,101407.25
2018-01-21T22:40:02.913Z,101408.59
2018-01-21T22:42:30.461Z,101408.80
2018-01-21T22:44:58.012Z,101402.70
2018-01-21T22:47:25.601Z,101403.50
2018-01-21T22:49:53.157Z,101405.41
2018-01-21T22:52:20.926Z,101401.79
2018-01-21T22:54:48.474Z,101406.94
2018-01-21T22:57:16.153Z,101408.95
2018-01-21T22:59:43.693Z,101400.88
2018-01-21T23:02:11.238Z,101398.90
2018-01-21T23:04:38.779Z,101409.27
2018-01-21T23:07:06.324Z,101406.44
2018-01-21T23:09:33.878Z,101398.77
2018-01-21T23:12:01.440Z,101390.76
2018-01-21T23:14:28.986Z,101394.17
2018-01-21T23:16:56.582Z,101388.66
2018-01-21T23:19:24.130Z,101384.21
2018-01-21T23:21:51.713Z,101376.11
2018-01-21T23:24:19.262Z,101382.27
2018-01-21T23:26:46.826Z,101391.09
2018-01-21T23:29:14.441Z,101389.00
2018-01-21T23:31:42.000Z,101379.55
2018-01-21T23:34:09.666Z,101377.51
2018-01-21T23:36:37.222Z,101373.43
2018-01-21T23:39:04.762Z,101372.86
2018-01-21T23:41:32.308Z,101377.67
2018-01-21T23:43:59.861Z,101381.17
2018-01-21T23:46:27.416Z,101375.42
2018-01-21T23:48:54.997Z,101371.82
2018-01-21T23:51:22.537Z,101367.56
2018-01-21T23:53:50.118Z,101353.03
2018-01-21T23:56:17.674Z,101350.76
2018-01-21T23:58:45.276Z,101360.02
